Darling, MS (38623)

1:24 PM CDT on September 16, 2014 (GMT -0500)
BHQ | Change Station
CLOSE
Current Station
Personal Weather Station
Location: Como, MS
Elevation: 367 ft
Nearby Weather Stations

Elev 367 ft 34.52 °N, 89.94 °W | Updated 12 minutes ago

Partly Cloudy
Partly Cloudy
85.1 °F
Feels Like 92 °F
N
2.7
Wind Variable Wind from South

Today
High -- | Low -- °F
--% Chance of Precip.
Yesterday
High -- | Low -- °F
Precip. -- in
6:44 AM 7:05 PM
Last Quarter, 43% visible
Pressure 30.10 in
Visibility 10.0 miles
Clouds Scattered Clouds 1700 ft
Heat Index 92 °F
Dew Point 73 °F
Humidity 68%
Rainfall 0.00 in
Snow Depth Not available.
UV 7 out of 12
Pollen 8.60 out of 12
Air Quality Not available.
Flu Activity Not available.
METAR KUTA 161815Z AUTO 01007KT 10SM SCT017 26/21 A3010 RMK AO2

More Conditions Fewer Conditions

Pressure 30.10 in
Visibility 10.0 miles
Clouds Scattered Clouds 1700 ft
Heat Index 92 °F
Dew Point 73 °F
Humidity 68%
Rainfall 0.00 in
Snow Depth Not available.
UV 7 out of 12
Pollen 8.60 out of 12
Air Quality Not available.
Flu Activity Not available.
METAR KUTA 161815Z AUTO 01007KT 10SM SCT017 26/21 A3010 RMK AO2

More Conditions Fewer Conditions

10-Day Weather Forecast

Almanac

Astronomy

Sep. 16, 2014 Rise Set
Actual Time 6:44 AM CDT 7:05 PM CDT
Civil Twilight 6:19 AM CDT 7:31 PM CDT
Nautical Twilight 5:49 AM CDT 8:00 PM CDT
Astronomical Twilight 5:19 AM CDT 8:30 PM CDT
Moon 12:05 AM CDT 2:18 PM CDT
Length of Visible Light 13h 11m
Length of Day
12h 21m
Tomorrow will be 2m 8s shorter.
Last Quarter, 43% of the Moon is Illuminated
Today
Last Quarter
Sep 24
New
Oct 1
First Quarter
Oct 8
Full
Oct 15
Last Quarter

Today's Extremes

State Highs State Lows

Community

WunderPhotos

Upload Photos

1,753,852 photos uploaded!

WunderBlogs® & News

Nearby

Snow Depth

Station Depth Elevation
No new snow has been reported.

Earthquake Activity

City Distance Mag. Time & Date
No recent earthquake activity has been reported nearby.
Minimum magnitude displayed is 2.5.

Coastal Water Temperatures

Place Temperature
No Stations Reporting

Nearby Weather Stations